createdAt,value
2022-10-04T00:02:20.781Z,11.90
2022-10-04T00:04:53.588Z,11.90
2022-10-04T00:07:31.702Z,11.90
2022-10-04T00:10:01.027Z,11.90
2022-10-04T00:12:38.624Z,11.90
2022-10-04T00:15:22.354Z,11.90
2022-10-04T00:18:05.434Z,12.00
2022-10-04T00:20:50.656Z,12.00
2022-10-04T00:23:23.718Z,12.10
2022-10-04T00:26:02.267Z,12.10
2022-10-04T00:28:46.671Z,12.10
2022-10-04T00:31:15.978Z,12.10
2022-10-04T00:33:46.986Z,12.10
2022-10-04T00:36:26.197Z,12.10
2022-10-04T00:39:05.240Z,12.10
2022-10-04T00:42:02.804Z,12.10
2022-10-04T00:44:38.655Z,12.00
2022-10-04T00:47:20.325Z,12.00
2022-10-04T00:49:49.144Z,12.00
2022-10-04T00:52:26.510Z,11.90
2022-10-04T00:55:05.260Z,11.90
2022-10-04T00:57:42.852Z,11.80
2022-10-04T01:00:15.925Z,11.70
2022-10-04T01:02:45.480Z,11.70
2022-10-04T01:05:23.360Z,11.60
2022-10-04T01:08:09.766Z,11.60
2022-10-04T01:10:56.921Z,11.50
2022-10-04T01:13:30.773Z,11.40
2022-10-04T01:16:03.667Z,11.40
2022-10-04T01:18:33.886Z,11.30
2022-10-04T01:21:22.260Z,11.20
2022-10-04T01:23:52.873Z,11.10
2022-10-04T01:26:34.776Z,11.00
2022-10-04T01:29:10.709Z,10.90
2022-10-04T01:31:41.904Z,10.80
2022-10-04T01:34:09.269Z,10.80
2022-10-04T01:36:37.033Z,10.70
2022-10-04T01:39:04.543Z,10.70
2022-10-04T01:41:40.650Z,10.60
2022-10-04T01:44:11.591Z,10.50
2022-10-04T01:46:41.132Z,10.40
2022-10-04T01:49:16.055Z,10.40
2022-10-04T01:51:59.423Z,10.30
2022-10-04T01:54:34.745Z,10.30
2022-10-04T01:57:19.389Z,10.20
2022-10-04T01:59:54.953Z,10.20
2022-10-04T02:02:45.494Z,10.10
2022-10-04T02:05:15.937Z,10.10
2022-10-04T02:07:43.837Z,10.10
2022-10-04T02:10:16.956Z,10.00
2022-10-04T02:12:47.308Z,10.00
2022-10-04T02:15:14.696Z,10.00
2022-10-04T02:17:43.923Z,9.90
2022-10-04T02:20:19.679Z,9.90
2022-10-04T02:22:55.473Z,9.90
2022-10-04T02:25:22.969Z,9.80
2022-10-04T02:27:54.008Z,9.80
2022-10-04T02:30:21.522Z,9.80
2022-10-04T02:32:58.346Z,9.80
2022-10-04T02:35:36.435Z,9.80
2022-10-04T02:38:22.264Z,9.80
2022-10-04T02:41:17.493Z,9.80
2022-10-04T02:43:53.870Z,9.80
2022-10-04T02:47:06.579Z,9.80
2022-10-04T02:49:38.244Z,9.70
2022-10-04T02:52:12.695Z,9.70
2022-10-04T02:54:55.509Z,9.60
2022-10-04T02:57:23.856Z,9.60
2022-10-04T02:59:51.587Z,9.60
2022-10-04T03:02:30.594Z,9.50
2022-10-04T03:05:17.874Z,9.50
2022-10-04T03:07:45.108Z,9.50
2022-10-04T03:10:15.195Z,9.50
2022-10-04T03:12:42.398Z,9.40
2022-10-04T03:15:13.220Z,9.50
2022-10-04T03:17:44.374Z,9.40
2022-10-04T03:20:15.721Z,9.40
2022-10-04T03:22:47.284Z,9.40
2022-10-04T03:25:18.317Z,9.40
2022-10-04T03:27:45.463Z,9.40
2022-10-04T03:30:17.138Z,9.40
2022-10-04T03:32:44.313Z,9.40
2022-10-04T03:35:30.590Z,9.30
2022-10-04T03:37:59.054Z,9.30
2022-10-04T03:40:29.550Z,9.30
2022-10-04T03:42:57.891Z,9.30
2022-10-04T03:45:26.767Z,9.30
2022-10-04T03:47:57.172Z,9.30
2022-10-04T03:50:33.670Z,9.30
2022-10-04T03:53:06.124Z,9.30
2022-10-04T03:55:38.203Z,9.30
2022-10-04T03:58:06.631Z,9.30
2022-10-04T04:00:39.540Z,9.30
2022-10-04T04:03:09.547Z,9.30
2022-10-04T04:05:44.740Z,9.40
2022-10-04T04:08:38.486Z,9.40
2022-10-04T04:11:07.517Z,9.40
2022-10-04T04:13:52.405Z,9.30
2022-10-04T04:16:26.151Z,9.30
2022-10-04T04:18:55.583Z,9.30
2022-10-04T04:21:26.121Z,9.20
2022-10-04T04:23:59.657Z,9.20
2022-10-04T04:26:46.985Z,9.10
2022-10-04T04:29:43.029Z,9.10
2022-10-04T04:32:24.645Z,9.10
2022-10-04T04:35:07.237Z,9.00
2022-10-04T04:37:38.674Z,9.00
2022-10-04T04:40:20.812Z,8.90
2022-10-04T04:42:49.270Z,8.90
2022-10-04T04:45:19.263Z,8.90
2022-10-04T04:47:50.890Z,8.90
2022-10-04T04:50:27.448Z,8.90
2022-10-04T04:53:00.774Z,8.90
2022-10-04T04:56:01.837Z,8.90
2022-10-04T04:58:33.017Z,8.80
2022-10-04T05:01:05.020Z,8.90
2022-10-04T05:03:34.025Z,8.90
2022-10-04T05:06:02.960Z,8.90
2022-10-04T05:08:32.826Z,8.90
2022-10-04T05:11:08.395Z,8.90
2022-10-04T05:13:52.850Z,8.90
2022-10-04T05:16:24.798Z,8.90
2022-10-04T05:18:58.824Z,8.90
2022-10-04T05:21:31.218Z,8.90
2022-10-04T05:24:09.435Z,8.80
2022-10-04T05:26:36.182Z,8.80
2022-10-04T05:29:11.573Z,8.70
2022-10-04T05:32:07.727Z,8.70
2022-10-04T05:34:45.501Z,8.60
2022-10-04T05:37:49.897Z,8.60
2022-10-04T05:40:24.172Z,8.50
2022-10-04T05:42:52.264Z,8.50
2022-10-04T05:45:23.469Z,8.50
2022-10-04T05:47:53.489Z,8.40
2022-10-04T05:50:29.091Z,8.50
2022-10-04T05:53:33.552Z,8.50
2022-10-04T05:56:22.041Z,8.50
2022-10-04T05:59:18.583Z,8.50
2022-10-04T06:02:18.369Z,8.50
2022-10-04T06:05:17.653Z,8.60
2022-10-04T06:08:02.078Z,8.60
2022-10-04T06:10:47.409Z,8.70
2022-10-04T06:13:31.523Z,8.70
2022-10-04T06:16:20.174Z,8.80
2022-10-04T06:19:14.304Z,8.80
2022-10-04T06:22:13.128Z,8.80
2022-10-04T06:24:42.329Z,8.90
2022-10-04T06:27:08.979Z,8.90
2022-10-04T06:29:42.048Z,8.90
2022-10-04T06:32:35.789Z,9.00
2022-10-04T06:35:02.506Z,9.00
2022-10-04T06:37:44.678Z,9.00
2022-10-04T06:40:44.285Z,9.00
2022-10-04T06:43:30.038Z,9.10
2022-10-04T06:46:15.259Z,9.10
2022-10-04T06:48:55.354Z,9.20
2022-10-04T06:51:32.212Z,9.30
2022-10-04T06:54:31.982Z,9.40
2022-10-04T06:57:21.381Z,9.60
2022-10-04T07:00:07.128Z,9.80
2022-10-04T07:02:46.662Z,9.90
2022-10-04T07:05:31.851Z,10.00
2022-10-04T07:08:12.418Z,10.10
2022-10-04T07:10:45.487Z,10.30
2022-10-04T07:13:23.865Z,10.50
2022-10-04T07:16:08.914Z,10.80
2022-10-04T07:18:59.621Z,11.00
2022-10-04T07:21:36.306Z,11.30
2022-10-04T07:24:03.934Z,11.50
2022-10-04T07:26:45.888Z,11.60
2022-10-04T07:29:22.924Z,11.70
2022-10-04T07:32:12.278Z,11.90
2022-10-04T07:34:44.162Z,12.00
2022-10-04T07:37:13.111Z,12.10
2022-10-04T07:39:52.838Z,12.20
2022-10-04T07:42:32.698Z,12.30
2022-10-04T07:45:17.546Z,12.30
2022-10-04T07:47:44.885Z,12.40
2022-10-04T07:50:22.565Z,12.40
2022-10-04T07:52:58.765Z,12.50
2022-10-04T07:55:44.433Z,12.60
2022-10-04T07:58:26.264Z,12.70
2022-10-04T08:01:18.072Z,12.80
2022-10-04T08:04:17.147Z,13.00
2022-10-04T08:07:02.385Z,13.10
2022-10-04T08:09:42.987Z,13.30
2022-10-04T08:12:28.532Z,13.40
2022-10-04T08:15:25.781Z,13.50
2022-10-04T08:17:52.577Z,13.50
2022-10-04T08:20:57.804Z,13.50
2022-10-04T08:24:01.745Z,13.60
2022-10-04T08:26:28.417Z,13.70
2022-10-04T08:29:43.172Z,13.80
2022-10-04T08:32:36.844Z,13.90
2022-10-04T08:35:36.120Z,14.00
2022-10-04T08:38:15.097Z,14.20
2022-10-04T08:41:03.649Z,14.30
2022-10-04T08:43:56.851Z,14.40
2022-10-04T08:46:35.598Z,14.50
2022-10-04T08:49:16.486Z,14.60
2022-10-04T08:51:56.215Z,14.70
2022-10-04T08:54:44.277Z,14.80
2022-10-04T08:57:30.490Z,14.70
2022-10-04T09:00:07.461Z,14.80
2022-10-04T09:03:08.524Z,14.90
2022-10-04T09:05:54.387Z,14.90
2022-10-04T09:08:39.259Z,14.90
2022-10-04T09:11:34.410Z,15.00
2022-10-04T09:14:35.885Z,15.00
2022-10-04T09:17:22.590Z,15.00
2022-10-04T09:20:26.188Z,14.90
2022-10-04T09:23:16.801Z,14.90
2022-10-04T09:25:58.517Z,15.00
2022-10-04T09:28:28.107Z,15.10
2022-10-04T09:31:21.143Z,15.10
2022-10-04T09:34:24.206Z,15.30
2022-10-04T09:37:06.037Z,15.40
2022-10-04T09:40:04.075Z,15.60
2022-10-04T09:43:08.868Z,15.70
2022-10-04T09:45:52.280Z,15.70
2022-10-04T09:48:56.536Z,15.70
2022-10-04T09:51:24.865Z,15.80
2022-10-04T09:54:15.621Z,15.90
2022-10-04T09:57:15.053Z,15.90
2022-10-04T10:00:02.472Z,16.10
2022-10-04T10:02:42.791Z,16.20
2022-10-04T10:05:27.111Z,16.40
2022-10-04T10:08:26.066Z,16.50
2022-10-04T10:11:35.999Z,16.60
2022-10-04T10:14:24.298Z,16.70
2022-10-04T10:17:15.269Z,16.70
2022-10-04T10:20:08.685Z,16.70
2022-10-04T10:23:06.369Z,16.80
2022-10-04T10:25:59.396Z,16.80
2022-10-04T10:28:39.257Z,16.80
2022-10-04T10:31:17.985Z,17.00
2022-10-04T10:34:05.389Z,17.10
2022-10-04T10:36:45.617Z,17.30
2022-10-04T10:39:31.553Z,17.50
2022-10-04T10:42:33.051Z,17.70
2022-10-04T10:45:33.790Z,17.90
2022-10-04T10:48:05.330Z,17.90
2022-10-04T10:51:05.562Z,17.80
2022-10-04T10:54:08.259Z,17.70
2022-10-04T10:57:09.527Z,17.60
2022-10-04T11:00:14.468Z,17.50
2022-10-04T11:03:23.860Z,17.40
2022-10-04T11:05:52.320Z,17.50
2022-10-04T11:08:57.094Z,17.60
2022-10-04T11:11:56.146Z,18.00
2022-10-04T11:14:48.481Z,18.40
2022-10-04T11:17:49.669Z,18.90
2022-10-04T11:20:37.669Z,19.40
2022-10-04T11:23:20.926Z,19.70
2022-10-04T11:25:47.585Z,20.00
2022-10-04T11:28:43.368Z,20.10
2022-10-04T11:31:35.102Z,20.10
2022-10-04T11:34:39.837Z,20.20
2022-10-04T11:37:13.189Z,20.40
2022-10-04T11:40:01.323Z,20.40
2022-10-04T11:42:30.883Z,20.40
2022-10-04T11:45:36.377Z,20.30
2022-10-04T11:48:15.439Z,20.10
2022-10-04T11:51:05.931Z,20.00
2022-10-04T11:54:09.084Z,19.90
2022-10-04T11:56:50.299Z,19.90
2022-10-04T11:59:37.450Z,19.90
2022-10-04T12:02:29.180Z,19.90
2022-10-04T12:05:34.413Z,19.80
2022-10-04T12:08:14.048Z,19.60
2022-10-04T12:10:42.919Z,19.60
2022-10-04T12:13:18.693Z,19.50
2022-10-04T12:16:12.824Z,19.50
2022-10-04T12:19:01.636Z,19.20
2022-10-04T12:21:46.790Z,19.00
2022-10-04T12:24:33.224Z,18.90
2022-10-04T12:27:28.001Z,18.80
2022-10-04T12:30:20.781Z,18.80
2022-10-04T12:33:03.557Z,18.80
2022-10-04T12:35:35.702Z,18.80
2022-10-04T12:38:49.694Z,18.90
2022-10-04T12:41:37.962Z,18.90
2022-10-04T12:44:29.408Z,18.80
2022-10-04T12:47:48.250Z,18.80
2022-10-04T12:50:33.857Z,18.80
2022-10-04T12:53:11.971Z,18.80
2022-10-04T12:56:00.764Z,18.90
2022-10-04T12:58:39.468Z,18.90
2022-10-04T13:01:29.801Z,19.00
2022-10-04T13:04:06.182Z,19.00
2022-10-04T13:06:54.045Z,19.00
2022-10-04T13:09:59.842Z,19.10
2022-10-04T13:12:40.073Z,19.20
2022-10-04T13:18:40.269Z,19.30
2022-10-04T13:21:11.364Z,19.40
2022-10-04T13:23:44.730Z,19.50
2022-10-04T13:26:36.629Z,19.60
2022-10-04T13:29:10.522Z,19.70
2022-10-04T13:31:48.817Z,19.70
2022-10-04T13:34:44.636Z,19.70
2022-10-04T13:37:17.530Z,19.80
2022-10-04T13:40:21.419Z,19.90
2022-10-04T13:42:57.703Z,19.90
2022-10-04T13:45:47.929Z,20.10
2022-10-04T13:48:22.016Z,20.20
2022-10-04T13:51:22.523Z,20.40
2022-10-04T13:54:46.728Z,20.40
2022-10-04T13:57:26.631Z,20.50
2022-10-04T14:00:02.584Z,20.60
2022-10-04T14:02:52.338Z,20.70
2022-10-04T14:05:25.059Z,20.80
2022-10-04T14:08:17.353Z,20.80
2022-10-04T14:11:09.085Z,20.90
2022-10-04T14:14:05.168Z,20.90
2022-10-04T14:17:22.887Z,20.90
2022-10-04T14:19:59.317Z,20.80
2022-10-04T14:22:56.025Z,20.80
2022-10-04T14:25:40.851Z,20.70
2022-10-04T14:28:31.696Z,20.70
2022-10-04T14:31:21.881Z,20.70
2022-10-04T14:34:13.786Z,20.70
2022-10-04T14:36:52.425Z,20.80
2022-10-04T14:39:43.609Z,20.80
2022-10-04T14:42:14.310Z,20.90
2022-10-04T14:44:45.005Z,21.00
2022-10-04T14:47:54.167Z,21.00
2022-10-04T14:50:28.796Z,21.00
2022-10-04T14:53:20.751Z,20.90
2022-10-04T14:55:57.883Z,20.80
2022-10-04T14:58:33.510Z,20.60
2022-10-04T15:01:17.558Z,20.60
2022-10-04T15:03:57.980Z,20.50
2022-10-04T15:06:50.624Z,20.50
2022-10-04T15:09:33.383Z,20.50
2022-10-04T15:12:40.828Z,20.40
2022-10-04T15:15:14.415Z,20.30
2022-10-04T15:17:55.418Z,20.20
2022-10-04T15:20:52.664Z,20.20
2022-10-04T15:23:34.758Z,20.20
2022-10-04T15:26:07.445Z,20.20
2022-10-04T15:28:58.445Z,20.20
2022-10-04T15:32:02.217Z,20.20
2022-10-04T15:34:48.900Z,20.20
2022-10-04T15:37:20.090Z,20.20
2022-10-04T15:40:01.229Z,20.40
2022-10-04T15:42:35.077Z,21.00
2022-10-04T15:45:15.958Z,21.10
2022-10-04T15:48:01.073Z,21.00
2022-10-04T15:50:50.287Z,20.80
2022-10-04T15:53:44.838Z,20.70
2022-10-04T15:56:56.251Z,20.50
2022-10-04T15:59:47.406Z,20.60
2022-10-04T16:02:44.983Z,21.10
2022-10-04T16:05:29.462Z,21.70
2022-10-04T16:08:11.250Z,22.00
2022-10-04T16:11:02.486Z,21.70
2022-10-04T16:13:46.694Z,21.20
2022-10-04T16:16:26.297Z,20.50
2022-10-04T16:19:17.726Z,20.00
2022-10-04T16:21:47.416Z,19.50
2022-10-04T16:24:20.320Z,19.10
2022-10-04T16:26:50.507Z,18.80
2022-10-04T16:29:30.441Z,18.60
2022-10-04T16:32:18.303Z,18.40
2022-10-04T16:34:51.193Z,18.20
2022-10-04T16:37:28.163Z,18.10
2022-10-04T16:40:05.549Z,18.00
2022-10-04T16:42:45.150Z,17.90
2022-10-04T16:45:12.273Z,17.70
2022-10-04T16:47:56.492Z,17.70
2022-10-04T16:50:48.252Z,17.60
2022-10-04T16:53:39.290Z,17.50
2022-10-04T16:56:21.481Z,17.40
2022-10-04T16:59:12.943Z,17.40
2022-10-04T17:02:11.753Z,17.30
2022-10-04T17:04:41.217Z,17.20
2022-10-04T17:07:13.689Z,17.20
2022-10-04T17:10:06.060Z,17.10
2022-10-04T17:12:47.084Z,17.10
2022-10-04T17:15:44.822Z,17.00
2022-10-04T17:18:35.203Z,17.00
2022-10-04T17:21:31.635Z,17.00
2022-10-04T17:24:04.230Z,16.90
2022-10-04T17:27:24.872Z,16.90
2022-10-04T17:30:21.705Z,16.80
2022-10-04T17:33:11.262Z,16.80
2022-10-04T17:35:46.073Z,16.70
2022-10-04T17:38:49.243Z,16.70
2022-10-04T17:41:53.668Z,16.70
2022-10-04T17:44:42.519Z,16.70
2022-10-04T17:47:48.989Z,16.70
2022-10-04T17:50:42.543Z,16.60
2022-10-04T17:53:41.707Z,16.60
2022-10-04T17:56:11.673Z,16.60
2022-10-04T17:58:55.850Z,16.60
2022-10-04T18:01:44.446Z,16.60
2022-10-04T18:04:26.588Z,16.60
2022-10-04T18:07:17.312Z,16.60
2022-10-04T18:09:52.736Z,16.60
2022-10-04T18:12:28.457Z,16.60
2022-10-04T18:15:01.415Z,16.60
2022-10-04T18:17:46.040Z,16.60
2022-10-04T18:20:33.969Z,16.70
2022-10-04T18:23:12.286Z,16.70
2022-10-04T18:25:41.354Z,16.70
2022-10-04T18:28:08.171Z,16.70
2022-10-04T18:31:05.552Z,16.70
2022-10-04T18:33:37.296Z,16.70
2022-10-04T18:36:14.033Z,16.70
2022-10-04T18:38:46.743Z,16.70
2022-10-04T18:41:20.653Z,16.70
2022-10-04T18:43:59.834Z,16.70
2022-10-04T18:46:38.306Z,16.70
2022-10-04T18:49:24.524Z,16.70
2022-10-04T18:51:55.429Z,16.70
2022-10-04T18:54:34.770Z,16.70
2022-10-04T18:57:27.023Z,16.70
2022-10-04T19:00:21.577Z,16.60
2022-10-04T19:02:59.318Z,16.60
2022-10-04T19:05:31.916Z,16.60
2022-10-04T19:08:01.388Z,16.60
2022-10-04T19:10:53.054Z,16.60
2022-10-04T19:13:22.601Z,16.60
2022-10-04T19:15:55.472Z,16.60
2022-10-04T19:18:24.995Z,16.60
2022-10-04T19:21:27.400Z,16.60
2022-10-04T19:24:37.336Z,16.60
2022-10-04T19:27:10.632Z,16.60
2022-10-04T19:30:05.261Z,16.60
2022-10-04T19:32:59.632Z,16.60
2022-10-04T19:35:54.128Z,16.60
2022-10-04T19:38:29.508Z,16.50
2022-10-04T19:41:03.750Z,16.50
2022-10-04T19:43:58.734Z,16.50
2022-10-04T19:46:54.334Z,16.50
2022-10-04T19:49:32.062Z,16.50
2022-10-04T19:52:27.771Z,16.50
2022-10-04T19:55:11.730Z,16.50
2022-10-04T19:57:39.283Z,16.50
2022-10-04T20:00:13.539Z,16.50
2022-10-04T20:02:47.462Z,16.40
2022-10-04T20:05:20.057Z,16.40
2022-10-04T20:07:55.885Z,16.40
2022-10-04T20:10:28.254Z,16.40
2022-10-04T20:13:17.209Z,16.30
2022-10-04T20:15:45.209Z,16.30
2022-10-04T20:18:33.888Z,16.30
2022-10-04T20:21:01.643Z,16.20
2022-10-04T20:23:48.395Z,16.20
2022-10-04T20:27:00.355Z,16.20
2022-10-04T20:29:39.078Z,16.20
2022-10-04T20:32:08.566Z,16.20
2022-10-04T20:34:38.371Z,16.20
2022-10-04T20:37:08.384Z,16.20
2022-10-04T20:39:41.119Z,16.20
2022-10-04T20:42:31.661Z,16.20
2022-10-04T20:45:03.771Z,16.20
2022-10-04T20:47:40.829Z,16.20
2022-10-04T20:50:11.859Z,16.20
2022-10-04T20:52:47.262Z,16.20
2022-10-04T20:55:29.832Z,16.20
2022-10-04T20:58:19.535Z,16.20
2022-10-04T21:00:54.846Z,16.20
2022-10-04T21:03:22.205Z,16.20
2022-10-04T21:06:10.282Z,16.20
2022-10-04T21:08:38.037Z,16.20
2022-10-04T21:11:09.422Z,16.20
2022-10-04T21:14:14.578Z,16.20
2022-10-04T21:16:48.026Z,16.20
2022-10-04T21:19:33.082Z,16.20
2022-10-04T21:22:00.807Z,16.20
2022-10-04T21:24:39.183Z,16.20
2022-10-04T21:27:11.321Z,16.20
2022-10-04T21:29:39.533Z,16.20
2022-10-04T21:32:06.819Z,16.20
2022-10-04T21:34:53.464Z,16.20
2022-10-04T21:37:20.613Z,16.20
2022-10-04T21:39:47.600Z,16.20
2022-10-04T21:42:15.875Z,16.10
2022-10-04T21:44:42.756Z,16.10
2022-10-04T21:47:09.646Z,16.10
2022-10-04T21:49:36.435Z,16.20
2022-10-04T21:52:03.751Z,16.10
2022-10-04T21:54:30.529Z,16.10
2022-10-04T21:56:57.522Z,16.10
2022-10-04T21:59:24.803Z,16.10
2022-10-04T22:01:52.018Z,16.00
2022-10-04T22:04:19.134Z,16.00
2022-10-04T22:06:46.122Z,16.00
2022-10-04T22:09:13.061Z,16.00
2022-10-04T22:11:40.129Z,16.00
2022-10-04T22:14:07.061Z,16.00
2022-10-04T22:16:33.995Z,16.00
2022-10-04T22:19:00.832Z,16.00
2022-10-04T22:21:27.740Z,16.00
2022-10-04T22:23:54.476Z,16.00
2022-10-04T22:26:22.737Z,16.00
2022-10-04T22:28:51.903Z,16.00
2022-10-04T22:31:25.655Z,16.00
2022-10-04T22:33:53.416Z,16.00
2022-10-04T22:36:21.462Z,16.00
2022-10-04T22:39:18.805Z,16.00
2022-10-04T22:41:47.716Z,16.00
2022-10-04T22:44:16.536Z,15.90
2022-10-04T22:46:46.890Z,15.90
2022-10-04T22:49:16.671Z,15.90
2022-10-04T22:51:44.852Z,15.90
2022-10-04T22:54:20.611Z,15.90
2022-10-04T22:56:48.063Z,15.90
2022-10-04T22:59:19.466Z,15.90
2022-10-04T23:01:47.575Z,15.90
2022-10-04T23:04:25.159Z,15.90
2022-10-04T23:06:53.224Z,15.90
2022-10-04T23:09:20.727Z,15.90
2022-10-04T23:11:47.752Z,15.90
2022-10-04T23:14:14.481Z,15.90
2022-10-04T23:16:41.632Z,15.90
2022-10-04T23:19:21.431Z,15.90
2022-10-04T23:21:49.853Z,15.90
2022-10-04T23:24:22.686Z,15.90
2022-10-04T23:26:54.733Z,15.90
2022-10-04T23:29:33.531Z,15.90
2022-10-04T23:32:09.391Z,15.90
2022-10-04T23:34:38.700Z,15.90
2022-10-04T23:37:16.099Z,15.90
2022-10-04T23:39:44.544Z,15.90
2022-10-04T23:42:32.642Z,15.90
2022-10-04T23:45:00.497Z,15.90
2022-10-04T23:47:35.922Z,15.80
2022-10-04T23:50:18.571Z,15.80
2022-10-04T23:52:45.709Z,15.80
2022-10-04T23:55:24.337Z,15.80
2022-10-04T23:57:51.500Z,15.80
